sensor_id;sensor_type;location;lat;lon;timestamp;temperature;humidity
33269;DHT22;19640;50.944;5.260;2023-09-19T00:00:25;15.80;99.90
33269;DHT22;19640;50.944;5.260;2023-09-19T00:02:56;15.70;99.90
33269;DHT22;19640;50.944;5.260;2023-09-19T00:05:28;15.70;99.90
33269;DHT22;19640;50.944;5.260;2023-09-19T00:07:55;15.70;99.90
33269;DHT22;19640;50.944;5.260;2023-09-19T00:10:27;15.80;99.90
33269;DHT22;19640;50.944;5.260;2023-09-19T00:13:00;15.80;99.90
33269;DHT22;19640;50.944;5.260;2023-09-19T00:15:37;15.70;99.90
33269;DHT22;19640;50.944;5.260;2023-09-19T00:18:04;15.80;99.90
33269;DHT22;19640;50.944;5.260;2023-09-19T00:20:37;15.90;99.90
33269;DHT22;19640;50.944;5.260;2023-09-19T00:23:04;15.80;99.90
33269;DHT22;19640;50.944;5.260;2023-09-19T00:25:37;15.80;99.90
33269;DHT22;19640;50.944;5.260;2023-09-19T00:28:07;15.80;99.90
33269;DHT22;19640;50.944;5.260;2023-09-19T00:30:34;15.70;99.90
33269;DHT22;19640;50.944;5.260;2023-09-19T00:33:07;15.70;99.90
33269;DHT22;19640;50.944;5.260;2023-09-19T00:35:33;15.70;99.90
33269;DHT22;19640;50.944;5.260;2023-09-19T00:38:02;15.80;99.90
33269;DHT22;19640;50.944;5.260;2023-09-19T00:40:31;15.80;99.90
33269;DHT22;19640;50.944;5.260;2023-09-19T00:43:00;15.70;99.90
33269;DHT22;19640;50.944;5.260;2023-09-19T00:45:26;15.80;99.90
33269;DHT22;19640;50.944;5.260;2023-09-19T00:47:52;15.80;99.90
33269;DHT22;19640;50.944;5.260;2023-09-19T00:50:19;15.80;99.90
33269;DHT22;19640;50.944;5.260;2023-09-19T00:52:49;15.70;99.90
33269;DHT22;19640;50.944;5.260;2023-09-19T00:55:17;15.80;99.90
33269;DHT22;19640;50.944;5.260;2023-09-19T00:58:04;15.80;99.90
33269;DHT22;19640;50.944;5.260;2023-09-19T01:00:33;15.60;99.90
33269;DHT22;19640;50.944;5.260;2023-09-19T01:03:00;15.60;99.90
33269;DHT22;19640;50.944;5.260;2023-09-19T01:05:29;15.70;99.90
33269;DHT22;19640;50.944;5.260;2023-09-19T01:07:55;15.60;99.90
33269;DHT22;19640;50.944;5.260;2023-09-19T01:10:21;15.60;99.90
33269;DHT22;19640;50.944;5.260;2023-09-19T01:18:52;15.60;99.90
33269;DHT22;19640;50.944;5.260;2023-09-19T01:21:57;15.60;99.90
33269;DHT22;19640;50.944;5.260;2023-09-19T01:30:46;15.50;99.90
33269;DHT22;19640;50.944;5.260;2023-09-19T01:33:15;15.50;99.90
33269;DHT22;19640;50.944;5.260;2023-09-19T01:35:42;15.40;99.90
33269;DHT22;19640;50.944;5.260;2023-09-19T01:38:08;15.40;99.90
33269;DHT22;19640;50.944;5.260;2023-09-19T01:40:42;15.50;99.90
33269;DHT22;19640;50.944;5.260;2023-09-19T01:43:20;15.50;99.90
33269;DHT22;19640;50.944;5.260;2023-09-19T01:46:21;15.60;99.90
33269;DHT22;19640;50.944;5.260;2023-09-19T01:48:59;15.50;99.90
33269;DHT22;19640;50.944;5.260;2023-09-19T01:51:46;15.60;99.90
33269;DHT22;19640;50.944;5.260;2023-09-19T01:54:41;15.50;99.90
33269;DHT22;19640;50.944;5.260;2023-09-19T01:57:17;15.50;99.90
33269;DHT22;19640;50.944;5.260;2023-09-19T01:59:54;15.50;99.90
33269;DHT22;19640;50.944;5.260;2023-09-19T02:02:25;15.50;99.90
33269;DHT22;19640;50.944;5.260;2023-09-19T02:04:51;15.50;99.90
33269;DHT22;19640;50.944;5.260;2023-09-19T02:07:18;15.40;99.90
33269;DHT22;19640;50.944;5.260;2023-09-19T02:09:44;15.20;99.90
33269;DHT22;19640;50.944;5.260;2023-09-19T02:12:09;15.30;99.90
33269;DHT22;19640;50.944;5.260;2023-09-19T02:14:35;15.30;99.90
33269;DHT22;19640;50.944;5.260;2023-09-19T02:17:04;15.30;99.90
33269;DHT22;19640;50.944;5.260;2023-09-19T02:19:34;15.40;99.90
33269;DHT22;19640;50.944;5.260;2023-09-19T02:22:00;15.30;99.90
33269;DHT22;19640;50.944;5.260;2023-09-19T02:24:30;15.20;99.90
33269;DHT22;19640;50.944;5.260;2023-09-19T02:26:56;15.20;99.90
33269;DHT22;19640;50.944;5.260;2023-09-19T02:29:24;15.20;99.90
33269;DHT22;19640;50.944;5.260;2023-09-19T02:31:50;15.20;99.90
33269;DHT22;19640;50.944;5.260;2023-09-19T02:34:16;15.10;99.90
33269;DHT22;19640;50.944;5.260;2023-09-19T02:36:43;15.20;99.90
33269;DHT22;19640;50.944;5.260;2023-09-19T02:39:10;15.10;99.90
33269;DHT22;19640;50.944;5.260;2023-09-19T02:41:37;15.10;99.90
33269;DHT22;19640;50.944;5.260;2023-09-19T02:44:03;15.00;99.90
33269;DHT22;19640;50.944;5.260;2023-09-19T02:46:34;15.00;99.90
33269;DHT22;19640;50.944;5.260;2023-09-19T02:49:02;14.90;99.90
33269;DHT22;19640;50.944;5.260;2023-09-19T02:51:30;14.90;99.90
33269;DHT22;19640;50.944;5.260;2023-09-19T02:53:56;15.00;99.90
33269;DHT22;19640;50.944;5.260;2023-09-19T02:56:22;15.00;99.90
33269;DHT22;19640;50.944;5.260;2023-09-19T02:58:48;15.10;99.90
33269;DHT22;19640;50.944;5.260;2023-09-19T03:01:16;15.30;99.90
33269;DHT22;19640;50.944;5.260;2023-09-19T03:03:41;15.20;99.90
33269;DHT22;19640;50.944;5.260;2023-09-19T03:06:07;15.20;99.90
33269;DHT22;19640;50.944;5.260;2023-09-19T03:08:35;15.10;99.90
33269;DHT22;19640;50.944;5.260;2023-09-19T03:11:03;15.20;99.90
33269;DHT22;19640;50.944;5.260;2023-09-19T03:13:29;15.10;99.90
33269;DHT22;19640;50.944;5.260;2023-09-19T03:15:56;15.00;99.90
33269;DHT22;19640;50.944;5.260;2023-09-19T03:18:25;14.90;99.90
33269;DHT22;19640;50.944;5.260;2023-09-19T03:20:56;15.00;99.90
33269;DHT22;19640;50.944;5.260;2023-09-19T03:23:22;15.00;99.90
33269;DHT22;19640;50.944;5.260;2023-09-19T03:25:47;15.00;99.90
33269;DHT22;19640;50.944;5.260;2023-09-19T03:28:14;15.00;99.90
33269;DHT22;19640;50.944;5.260;2023-09-19T03:30:43;15.00;99.90
33269;DHT22;19640;50.944;5.260;2023-09-19T03:33:11;15.00;99.90
33269;DHT22;19640;50.944;5.260;2023-09-19T03:35:39;15.10;99.90
33269;DHT22;19640;50.944;5.260;2023-09-19T03:38:05;15.10;99.90
33269;DHT22;19640;50.944;5.260;2023-09-19T03:40:32;15.10;99.90
33269;DHT22;19640;50.944;5.260;2023-09-19T03:43:00;15.20;99.90
33269;DHT22;19640;50.944;5.260;2023-09-19T03:45:26;15.20;99.90
33269;DHT22;19640;50.944;5.260;2023-09-19T03:47:59;15.10;99.90
33269;DHT22;19640;50.944;5.260;2023-09-19T03:50:24;15.10;99.90
33269;DHT22;19640;50.944;5.260;2023-09-19T03:52:56;15.00;99.90
33269;DHT22;19640;50.944;5.260;2023-09-19T03:55:22;15.00;99.90
33269;DHT22;19640;50.944;5.260;2023-09-19T03:57:49;14.90;99.90
33269;DHT22;19640;50.944;5.260;2023-09-19T04:00:16;14.90;99.90
33269;DHT22;19640;50.944;5.260;2023-09-19T04:02:51;15.00;99.90
33269;DHT22;19640;50.944;5.260;2023-09-19T04:05:19;15.10;99.90
33269;DHT22;19640;50.944;5.260;2023-09-19T04:07:44;15.10;99.90
33269;DHT22;19640;50.944;5.260;2023-09-19T04:10:12;15.20;99.90
33269;DHT22;19640;50.944;5.260;2023-09-19T04:12:40;15.10;99.90
33269;DHT22;19640;50.944;5.260;2023-09-19T04:15:06;15.00;99.90
33269;DHT22;19640;50.944;5.260;2023-09-19T04:17:33;15.00;99.90
33269;DHT22;19640;50.944;5.260;2023-09-19T04:20:00;15.00;99.90
33269;DHT22;19640;50.944;5.260;2023-09-19T04:22:26;14.90;99.90
33269;DHT22;19640;50.944;5.260;2023-09-19T04:24:52;14.90;99.90
33269;DHT22;19640;50.944;5.260;2023-09-19T04:27:20;15.00;99.90
33269;DHT22;19640;50.944;5.260;2023-09-19T04:29:52;15.00;99.90
33269;DHT22;19640;50.944;5.260;2023-09-19T04:32:19;15.00;99.90
33269;DHT22;19640;50.944;5.260;2023-09-19T04:34:47;15.20;99.90
33269;DHT22;19640;50.944;5.260;2023-09-19T04:37:21;15.20;99.90
33269;DHT22;19640;50.944;5.260;2023-09-19T04:39:48;15.10;99.90
33269;DHT22;19640;50.944;5.260;2023-09-19T04:42:13;15.10;99.90
33269;DHT22;19640;50.944;5.260;2023-09-19T04:44:43;15.10;99.90
33269;DHT22;19640;50.944;5.260;2023-09-19T04:47:09;15.10;99.90
33269;DHT22;19640;50.944;5.260;2023-09-19T04:49:38;15.00;99.90
33269;DHT22;19640;50.944;5.260;2023-09-19T04:52:05;15.10;99.90
33269;DHT22;19640;50.944;5.260;2023-09-19T04:54:34;15.10;99.90
33269;DHT22;19640;50.944;5.260;2023-09-19T04:57:00;15.10;99.90
33269;DHT22;19640;50.944;5.260;2023-09-19T04:59:27;15.00;99.90
33269;DHT22;19640;50.944;5.260;2023-09-19T05:01:57;15.00;99.90
33269;DHT22;19640;50.944;5.260;2023-09-19T05:04:25;15.00;99.90
33269;DHT22;19640;50.944;5.260;2023-09-19T05:06:51;14.90;99.90
33269;DHT22;19640;50.944;5.260;2023-09-19T05:09:18;14.90;99.90
33269;DHT22;19640;50.944;5.260;2023-09-19T05:11:45;15.00;99.90
33269;DHT22;19640;50.944;5.260;2023-09-19T05:14:12;15.00;99.90
33269;DHT22;19640;50.944;5.260;2023-09-19T05:16:37;15.20;99.90
33269;DHT22;19640;50.944;5.260;2023-09-19T05:19:05;15.10;99.90
33269;DHT22;19640;50.944;5.260;2023-09-19T05:21:31;15.00;99.90
33269;DHT22;19640;50.944;5.260;2023-09-19T05:23:58;15.00;99.90
33269;DHT22;19640;50.944;5.260;2023-09-19T05:26:24;15.00;99.90
33269;DHT22;19640;50.944;5.260;2023-09-19T05:28:50;14.90;99.90
33269;DHT22;19640;50.944;5.260;2023-09-19T05:31:18;14.80;99.90
33269;DHT22;19640;50.944;5.260;2023-09-19T05:33:45;14.80;99.90
33269;DHT22;19640;50.944;5.260;2023-09-19T05:36:10;14.80;99.90
33269;DHT22;19640;50.944;5.260;2023-09-19T05:38:38;14.80;99.90
33269;DHT22;19640;50.944;5.260;2023-09-19T05:41:06;14.90;99.90
33269;DHT22;19640;50.944;5.260;2023-09-19T05:43:33;14.80;99.90
33269;DHT22;19640;50.944;5.260;2023-09-19T05:46:00;14.80;99.90
33269;DHT22;19640;50.944;5.260;2023-09-19T05:48:25;14.90;99.90
33269;DHT22;19640;50.944;5.260;2023-09-19T05:50:52;14.80;99.90
33269;DHT22;19640;50.944;5.260;2023-09-19T05:53:17;14.80;99.90
33269;DHT22;19640;50.944;5.260;2023-09-19T05:55:44;14.90;99.90
33269;DHT22;19640;50.944;5.260;2023-09-19T05:58:11;14.80;99.90
33269;DHT22;19640;50.944;5.260;2023-09-19T06:00:43;14.80;99.90
33269;DHT22;19640;50.944;5.260;2023-09-19T06:03:10;14.70;99.90
33269;DHT22;19640;50.944;5.260;2023-09-19T06:05:38;14.70;99.90
33269;DHT22;19640;50.944;5.260;2023-09-19T06:08:06;14.70;99.90
33269;DHT22;19640;50.944;5.260;2023-09-19T06:10:33;14.80;99.90
33269;DHT22;19640;50.944;5.260;2023-09-19T06:13:02;14.90;99.90
33269;DHT22;19640;50.944;5.260;2023-09-19T06:15:30;15.00;99.90
33269;DHT22;19640;50.944;5.260;2023-09-19T06:17:58;14.80;99.90
33269;DHT22;19640;50.944;5.260;2023-09-19T06:20:30;14.90;99.90
33269;DHT22;19640;50.944;5.260;2023-09-19T06:22:56;14.90;99.90
33269;DHT22;19640;50.944;5.260;2023-09-19T06:25:22;14.90;99.90
33269;DHT22;19640;50.944;5.260;2023-09-19T06:27:50;14.90;99.90
33269;DHT22;19640;50.944;5.260;2023-09-19T06:30:18;14.90;99.90
33269;DHT22;19640;50.944;5.260;2023-09-19T06:32:44;15.00;99.90
33269;DHT22;19640;50.944;5.260;2023-09-19T06:35:11;15.10;99.90
33269;DHT22;19640;50.944;5.260;2023-09-19T06:37:38;15.10;99.90
33269;DHT22;19640;50.944;5.260;2023-09-19T06:42:33;15.30;99.90
33269;DHT22;19640;50.944;5.260;2023-09-19T06:44:58;15.30;99.90
33269;DHT22;19640;50.944;5.260;2023-09-19T06:47:24;15.30;99.90
33269;DHT22;19640;50.944;5.260;2023-09-19T06:49:53;15.30;99.90
33269;DHT22;19640;50.944;5.260;2023-09-19T06:52:24;15.40;99.90
33269;DHT22;19640;50.944;5.260;2023-09-19T06:54:52;15.50;99.90
33269;DHT22;19640;50.944;5.260;2023-09-19T06:57:24;15.50;99.90
33269;DHT22;19640;50.944;5.260;2023-09-19T06:59:51;15.60;99.90
33269;DHT22;19640;50.944;5.260;2023-09-19T07:02:18;15.60;99.90
33269;DHT22;19640;50.944;5.260;2023-09-19T07:04:43;15.60;99.90
33269;DHT22;19640;50.944;5.260;2023-09-19T07:07:09;15.60;99.90
33269;DHT22;19640;50.944;5.260;2023-09-19T07:09:36;15.70;99.90
33269;DHT22;19640;50.944;5.260;2023-09-19T07:12:02;15.80;99.90
33269;DHT22;19640;50.944;5.260;2023-09-19T07:14:28;15.80;99.90
33269;DHT22;19640;50.944;5.260;2023-09-19T07:16:55;16.00;99.90
33269;DHT22;19640;50.944;5.260;2023-09-19T07:19:22;16.00;99.90
33269;DHT22;19640;50.944;5.260;2023-09-19T07:21:48;15.90;99.90
33269;DHT22;19640;50.944;5.260;2023-09-19T07:24:15;15.90;99.90
33269;DHT22;19640;50.944;5.260;2023-09-19T07:26:45;16.00;99.90
33269;DHT22;19640;50.944;5.260;2023-09-19T07:29:11;16.10;99.90
33269;DHT22;19640;50.944;5.260;2023-09-19T07:31:38;16.20;99.90
33269;DHT22;19640;50.944;5.260;2023-09-19T07:34:04;16.10;99.90
33269;DHT22;19640;50.944;5.260;2023-09-19T07:36:31;16.20;99.90
33269;DHT22;19640;50.944;5.260;2023-09-19T07:38:57;16.30;99.90
33269;DHT22;19640;50.944;5.260;2023-09-19T07:41:25;16.50;99.90
33269;DHT22;19640;50.944;5.260;2023-09-19T07:43:52;16.70;99.90
33269;DHT22;19640;50.944;5.260;2023-09-19T07:46:17;17.00;99.90
33269;DHT22;19640;50.944;5.260;2023-09-19T07:48:45;17.00;99.90
33269;DHT22;19640;50.944;5.260;2023-09-19T07:51:14;17.00;99.90
33269;DHT22;19640;50.944;5.260;2023-09-19T07:53:42;17.20;99.90
33269;DHT22;19640;50.944;5.260;2023-09-19T07:56:10;17.30;99.90
33269;DHT22;19640;50.944;5.260;2023-09-19T07:58:39;17.80;99.90
33269;DHT22;19640;50.944;5.260;2023-09-19T08:01:07;17.90;99.90
33269;DHT22;19640;50.944;5.260;2023-09-19T08:03:34;18.10;99.90
33269;DHT22;19640;50.944;5.260;2023-09-19T08:06:01;18.20;99.90
33269;DHT22;19640;50.944;5.260;2023-09-19T08:08:33;18.10;99.90
33269;DHT22;19640;50.944;5.260;2023-09-19T08:11:06;18.00;99.90
33269;DHT22;19640;50.944;5.260;2023-09-19T08:13:40;17.90;99.90
33269;DHT22;19640;50.944;5.260;2023-09-19T08:16:12;17.90;99.90
33269;DHT22;19640;50.944;5.260;2023-09-19T08:18:41;17.90;99.90
33269;DHT22;19640;50.944;5.260;2023-09-19T08:21:07;17.80;99.90
33269;DHT22;19640;50.944;5.260;2023-09-19T08:23:40;17.90;99.90
33269;DHT22;19640;50.944;5.260;2023-09-19T08:26:11;17.80;99.90
33269;DHT22;19640;50.944;5.260;2023-09-19T08:28:37;17.60;99.90
33269;DHT22;19640;50.944;5.260;2023-09-19T08:31:07;17.50;99.90
33269;DHT22;19640;50.944;5.260;2023-09-19T08:33:36;17.70;99.90
33269;DHT22;19640;50.944;5.260;2023-09-19T08:36:03;17.70;99.90
33269;DHT22;19640;50.944;5.260;2023-09-19T08:38:34;17.80;99.90
33269;DHT22;19640;50.944;5.260;2023-09-19T08:41:01;17.60;99.90
33269;DHT22;19640;50.944;5.260;2023-09-19T08:43:30;17.60;99.90
33269;DHT22;19640;50.944;5.260;2023-09-19T08:46:19;17.60;99.90
33269;DHT22;19640;50.944;5.260;2023-09-19T08:49:03;17.40;99.90
33269;DHT22;19640;50.944;5.260;2023-09-19T08:51:43;17.40;99.90
33269;DHT22;19640;50.944;5.260;2023-09-19T08:54:24;17.60;99.90
33269;DHT22;19640;50.944;5.260;2023-09-19T08:56:54;17.60;99.90
33269;DHT22;19640;50.944;5.260;2023-09-19T08:59:22;17.70;99.90
33269;DHT22;19640;50.944;5.260;2023-09-19T09:01:53;17.80;99.90
33269;DHT22;19640;50.944;5.260;2023-09-19T09:04:19;17.80;99.90
33269;DHT22;19640;50.944;5.260;2023-09-19T09:06:46;17.90;99.90
33269;DHT22;19640;50.944;5.260;2023-09-19T09:09:20;17.90;99.90
33269;DHT22;19640;50.944;5.260;2023-09-19T09:11:48;17.70;99.90
33269;DHT22;19640;50.944;5.260;2023-09-19T09:14:20;17.80;99.90
33269;DHT22;19640;50.944;5.260;2023-09-19T09:16:46;17.90;99.90
33269;DHT22;19640;50.944;5.260;2023-09-19T09:19:14;17.80;99.90
33269;DHT22;19640;50.944;5.260;2023-09-19T09:21:42;17.80;99.90
33269;DHT22;19640;50.944;5.260;2023-09-19T09:24:29;17.90;99.90
33269;DHT22;19640;50.944;5.260;2023-09-19T09:26:59;18.00;99.90
33269;DHT22;19640;50.944;5.260;2023-09-19T09:29:47;18.10;99.90
33269;DHT22;19640;50.944;5.260;2023-09-19T09:32:18;18.20;99.90
33269;DHT22;19640;50.944;5.260;2023-09-19T09:35:07;18.20;99.90
33269;DHT22;19640;50.944;5.260;2023-09-19T09:37:35;18.30;99.90
33269;DHT22;19640;50.944;5.260;2023-09-19T09:40:04;18.40;99.90
33269;DHT22;19640;50.944;5.260;2023-09-19T09:42:50;18.40;99.90
33269;DHT22;19640;50.944;5.260;2023-09-19T09:45:24;18.50;99.90
33269;DHT22;19640;50.944;5.260;2023-09-19T09:48:01;18.60;99.90
33269;DHT22;19640;50.944;5.260;2023-09-19T09:50:47;18.50;99.90
33269;DHT22;19640;50.944;5.260;2023-09-19T09:53:27;18.60;99.90
33269;DHT22;19640;50.944;5.260;2023-09-19T09:56:07;18.60;99.90
33269;DHT22;19640;50.944;5.260;2023-09-19T09:58:49;18.50;99.90
33269;DHT22;19640;50.944;5.260;2023-09-19T10:01:15;18.50;99.90
33269;DHT22;19640;50.944;5.260;2023-09-19T10:03:42;18.60;99.90
33269;DHT22;19640;50.944;5.260;2023-09-19T10:06:16;18.60;99.90
33269;DHT22;19640;50.944;5.260;2023-09-19T10:11:44;18.70;99.90
33269;DHT22;19640;50.944;5.260;2023-09-19T10:14:20;18.90;99.90
33269;DHT22;19640;50.944;5.260;2023-09-19T10:16:49;19.00;99.90
33269;DHT22;19640;50.944;5.260;2023-09-19T10:19:37;18.80;99.90
33269;DHT22;19640;50.944;5.260;2023-09-19T10:22:04;18.70;99.90
33269;DHT22;19640;50.944;5.260;2023-09-19T10:24:33;18.40;99.90
33269;DHT22;19640;50.944;5.260;2023-09-19T10:27:02;18.50;99.90
33269;DHT22;19640;50.944;5.260;2023-09-19T10:29:32;18.60;99.90
33269;DHT22;19640;50.944;5.260;2023-09-19T10:32:01;18.60;99.90
33269;DHT22;19640;50.944;5.260;2023-09-19T10:34:35;18.70;99.90
33269;DHT22;19640;50.944;5.260;2023-09-19T10:37:02;18.60;99.90
33269;DHT22;19640;50.944;5.260;2023-09-19T10:39:32;18.70;99.90
33269;DHT22;19640;50.944;5.260;2023-09-19T10:42:02;18.90;99.90
33269;DHT22;19640;50.944;5.260;2023-09-19T10:44:33;18.90;99.90
33269;DHT22;19640;50.944;5.260;2023-09-19T10:47:00;19.00;99.90
33269;DHT22;19640;50.944;5.260;2023-09-19T10:49:27;19.10;99.90
33269;DHT22;19640;50.944;5.260;2023-09-19T10:51:55;19.10;99.90
33269;DHT22;19640;50.944;5.260;2023-09-19T10:54:27;19.20;99.90
33269;DHT22;19640;50.944;5.260;2023-09-19T10:56:54;19.30;99.90
33269;DHT22;19640;50.944;5.260;2023-09-19T10:59:24;19.20;99.90
33269;DHT22;19640;50.944;5.260;2023-09-19T11:04:29;19.20;99.90
33269;DHT22;19640;50.944;5.260;2023-09-19T11:07:06;19.30;99.90
33269;DHT22;19640;50.944;5.260;2023-09-19T11:09:55;19.30;99.90
33269;DHT22;19640;50.944;5.260;2023-09-19T11:15:07;19.40;99.90
33269;DHT22;19640;50.944;5.260;2023-09-19T11:17:39;19.60;99.90
33269;DHT22;19640;50.944;5.260;2023-09-19T11:30:39;19.60;99.90
33269;DHT22;19640;50.944;5.260;2023-09-19T11:33:26;19.80;99.90
33269;DHT22;19640;50.944;5.260;2023-09-19T11:46:53;20.10;99.90
33269;DHT22;19640;50.944;5.260;2023-09-19T11:49:24;20.10;99.90
33269;DHT22;19640;50.944;5.260;2023-09-19T11:51:52;20.30;99.90
33269;DHT22;19640;50.944;5.260;2023-09-19T11:54:18;20.30;99.90
33269;DHT22;19640;50.944;5.260;2023-09-19T11:56:48;20.20;99.90
33269;DHT22;19640;50.944;5.260;2023-09-19T11:59:23;20.20;99.90
33269;DHT22;19640;50.944;5.260;2023-09-19T12:01:54;20.00;99.90
33269;DHT22;19640;50.944;5.260;2023-09-19T12:06:59;19.90;99.90
33269;DHT22;19640;50.944;5.260;2023-09-19T12:09:25;19.70;99.90
33269;DHT22;19640;50.944;5.260;2023-09-19T12:11:51;19.70;99.90
33269;DHT22;19640;50.944;5.260;2023-09-19T12:14:26;19.70;99.90
33269;DHT22;19640;50.944;5.260;2023-09-19T12:16:56;19.90;99.90
33269;DHT22;19640;50.944;5.260;2023-09-19T12:19:23;20.00;99.90
33269;DHT22;19640;50.944;5.260;2023-09-19T12:22:02;19.90;99.90
33269;DHT22;19640;50.944;5.260;2023-09-19T12:24:32;20.00;99.90
33269;DHT22;19640;50.944;5.260;2023-09-19T12:27:03;20.00;99.90
33269;DHT22;19640;50.944;5.260;2023-09-19T12:29:45;20.10;99.90
33269;DHT22;19640;50.944;5.260;2023-09-19T12:32:11;19.90;99.90
33269;DHT22;19640;50.944;5.260;2023-09-19T12:34:38;19.90;99.90
33269;DHT22;19640;50.944;5.260;2023-09-19T12:37:11;20.00;99.90
33269;DHT22;19640;50.944;5.260;2023-09-19T12:39:43;20.00;99.90
33269;DHT22;19640;50.944;5.260;2023-09-19T12:42:15;20.00;99.90
33269;DHT22;19640;50.944;5.260;2023-09-19T12:44:46;20.00;99.90
33269;DHT22;19640;50.944;5.260;2023-09-19T12:47:16;20.10;99.90
33269;DHT22;19640;50.944;5.260;2023-09-19T12:55:29;19.80;99.90
33269;DHT22;19640;50.944;5.260;2023-09-19T12:58:14;19.80;99.90
33269;DHT22;19640;50.944;5.260;2023-09-19T13:00:46;19.80;99.90
33269;DHT22;19640;50.944;5.260;2023-09-19T13:05:57;19.80;99.90
33269;DHT22;19640;50.944;5.260;2023-09-19T13:08:26;20.00;99.90
33269;DHT22;19640;50.944;5.260;2023-09-19T13:13:33;19.90;99.90
33269;DHT22;19640;50.944;5.260;2023-09-19T13:16:02;19.90;99.90
33269;DHT22;19640;50.944;5.260;2023-09-19T13:18:30;19.80;99.90
33269;DHT22;19640;50.944;5.260;2023-09-19T13:21:09;19.70;99.90
33269;DHT22;19640;50.944;5.260;2023-09-19T13:23:38;19.80;99.90
33269;DHT22;19640;50.944;5.260;2023-09-19T13:26:04;19.90;99.90
33269;DHT22;19640;50.944;5.260;2023-09-19T13:28:33;19.90;99.90
33269;DHT22;19640;50.944;5.260;2023-09-19T13:31:00;19.80;99.90
33269;DHT22;19640;50.944;5.260;2023-09-19T13:33:26;19.90;99.90
33269;DHT22;19640;50.944;5.260;2023-09-19T13:35:52;19.80;99.90
33269;DHT22;19640;50.944;5.260;2023-09-19T13:38:20;20.00;99.90
33269;DHT22;19640;50.944;5.260;2023-09-19T13:40:48;20.00;99.90
33269;DHT22;19640;50.944;5.260;2023-09-19T13:43:14;20.00;99.90
33269;DHT22;19640;50.944;5.260;2023-09-19T13:45:41;20.10;99.90
33269;DHT22;19640;50.944;5.260;2023-09-19T13:48:09;20.10;99.90
33269;DHT22;19640;50.944;5.260;2023-09-19T13:50:38;20.20;99.90
33269;DHT22;19640;50.944;5.260;2023-09-19T13:53:08;20.40;99.90
33269;DHT22;19640;50.944;5.260;2023-09-19T13:55:34;20.40;99.90
33269;DHT22;19640;50.944;5.260;2023-09-19T13:58:00;20.40;99.90
33269;DHT22;19640;50.944;5.260;2023-09-19T14:00:26;20.10;99.90
33269;DHT22;19640;50.944;5.260;2023-09-19T14:02:52;20.00;99.90
33269;DHT22;19640;50.944;5.260;2023-09-19T14:05:18;20.10;99.90
33269;DHT22;19640;50.944;5.260;2023-09-19T14:07:46;20.10;99.90
33269;DHT22;19640;50.944;5.260;2023-09-19T14:10:12;20.10;99.90
33269;DHT22;19640;50.944;5.260;2023-09-19T14:12:38;19.90;99.90
33269;DHT22;19640;50.944;5.260;2023-09-19T14:15:07;19.80;99.90
33269;DHT22;19640;50.944;5.260;2023-09-19T14:17:33;19.70;99.90
33269;DHT22;19640;50.944;5.260;2023-09-19T14:19:59;19.60;99.90
33269;DHT22;19640;50.944;5.260;2023-09-19T14:22:25;19.70;99.90
33269;DHT22;19640;50.944;5.260;2023-09-19T14:24:50;19.70;99.90
33269;DHT22;19640;50.944;5.260;2023-09-19T14:27:18;19.70;99.90
33269;DHT22;19640;50.944;5.260;2023-09-19T14:29:44;19.60;99.90
33269;DHT22;19640;50.944;5.260;2023-09-19T14:32:11;19.70;99.90
33269;DHT22;19640;50.944;5.260;2023-09-19T14:34:36;19.60;99.90
33269;DHT22;19640;50.944;5.260;2023-09-19T14:37:07;19.70;99.90
33269;DHT22;19640;50.944;5.260;2023-09-19T14:39:33;19.80;99.90
33269;DHT22;19640;50.944;5.260;2023-09-19T14:41:59;19.70;99.90
33269;DHT22;19640;50.944;5.260;2023-09-19T14:44:25;19.80;99.90
33269;DHT22;19640;50.944;5.260;2023-09-19T14:46:50;19.90;99.90
33269;DHT22;19640;50.944;5.260;2023-09-19T14:49:16;19.90;99.90
33269;DHT22;19640;50.944;5.260;2023-09-19T14:51:42;20.00;99.90
33269;DHT22;19640;50.944;5.260;2023-09-19T14:54:09;19.90;99.90
33269;DHT22;19640;50.944;5.260;2023-09-19T14:56:35;19.90;99.90
33269;DHT22;19640;50.944;5.260;2023-09-19T14:59:02;20.00;99.90
33269;DHT22;19640;50.944;5.260;2023-09-19T15:01:28;19.90;99.90
33269;DHT22;19640;50.944;5.260;2023-09-19T15:03:54;19.80;99.90
33269;DHT22;19640;50.944;5.260;2023-09-19T15:06:21;19.70;99.90
33269;DHT22;19640;50.944;5.260;2023-09-19T15:08:47;19.80;99.90
33269;DHT22;19640;50.944;5.260;2023-09-19T15:11:14;19.80;99.90
33269;DHT22;19640;50.944;5.260;2023-09-19T15:13:44;19.80;99.90
33269;DHT22;19640;50.944;5.260;2023-09-19T15:16:11;19.80;99.90
33269;DHT22;19640;50.944;5.260;2023-09-19T15:18:38;19.80;99.90
33269;DHT22;19640;50.944;5.260;2023-09-19T15:21:05;19.90;99.90
33269;DHT22;19640;50.944;5.260;2023-09-19T15:23:35;20.00;99.90
33269;DHT22;19640;50.944;5.260;2023-09-19T15:26:03;19.90;99.90
33269;DHT22;19640;50.944;5.260;2023-09-19T15:28:29;19.90;99.90
33269;DHT22;19640;50.944;5.260;2023-09-19T15:31:06;20.00;99.90
33269;DHT22;19640;50.944;5.260;2023-09-19T15:33:34;20.00;99.90
33269;DHT22;19640;50.944;5.260;2023-09-19T15:36:08;19.90;99.90
33269;DHT22;19640;50.944;5.260;2023-09-19T15:39:00;19.80;99.90
33269;DHT22;19640;50.944;5.260;2023-09-19T15:41:29;20.00;99.90
33269;DHT22;19640;50.944;5.260;2023-09-19T15:43:56;19.90;99.90
33269;DHT22;19640;50.944;5.260;2023-09-19T15:46:23;20.00;99.90
33269;DHT22;19640;50.944;5.260;2023-09-19T15:48:49;19.70;99.90
33269;DHT22;19640;50.944;5.260;2023-09-19T15:51:16;19.70;99.90
33269;DHT22;19640;50.944;5.260;2023-09-19T15:53:45;19.70;99.90
33269;DHT22;19640;50.944;5.260;2023-09-19T15:56:11;19.50;99.90
33269;DHT22;19640;50.944;5.260;2023-09-19T15:58:50;19.50;99.90
33269;DHT22;19640;50.944;5.260;2023-09-19T16:01:17;19.30;99.90
33269;DHT22;19640;50.944;5.260;2023-09-19T16:03:50;19.30;99.90
33269;DHT22;19640;50.944;5.260;2023-09-19T16:06:20;19.30;99.90
33269;DHT22;19640;50.944;5.260;2023-09-19T16:08:50;19.30;99.90
33269;DHT22;19640;50.944;5.260;2023-09-19T16:11:17;19.30;99.90
33269;DHT22;19640;50.944;5.260;2023-09-19T16:13:44;19.30;99.90
33269;DHT22;19640;50.944;5.260;2023-09-19T16:16:12;19.20;99.90
33269;DHT22;19640;50.944;5.260;2023-09-19T16:18:55;19.30;99.90
33269;DHT22;19640;50.944;5.260;2023-09-19T16:21:30;19.30;99.90
33269;DHT22;19640;50.944;5.260;2023-09-19T16:23:58;19.20;99.90
33269;DHT22;19640;50.944;5.260;2023-09-19T16:26:26;19.10;99.90
33269;DHT22;19640;50.944;5.260;2023-09-19T16:28:56;19.00;99.90
33269;DHT22;19640;50.944;5.260;2023-09-19T16:31:26;19.10;99.90
33269;DHT22;19640;50.944;5.260;2023-09-19T16:33:53;19.10;99.90
33269;DHT22;19640;50.944;5.260;2023-09-19T16:36:20;19.10;99.90
33269;DHT22;19640;50.944;5.260;2023-09-19T16:38:48;19.10;99.90
33269;DHT22;19640;50.944;5.260;2023-09-19T16:41:14;19.20;99.90